sensor_id;sensor_type;location;lat;lon;timestamp;pressure;altitude;pressure_sealevel;temperature;humidity
7180;BME280;3631;42.152;24.756;2023-03-13T00:02:26;99747.69;;;7.22;54.83
7180;BME280;3631;42.152;24.756;2023-03-13T00:04:53;99752.00;;;7.21;54.59
7180;BME280;3631;42.152;24.756;2023-03-13T00:07:20;99753.00;;;7.10;55.27
7180;BME280;3631;42.152;24.756;2023-03-13T00:09:48;99755.63;;;7.02;54.90
7180;BME280;3631;42.152;24.756;2023-03-13T00:12:15;99750.56;;;6.93;54.82
7180;BME280;3631;42.152;24.756;2023-03-13T00:14:42;99753.22;;;6.87;55.40
7180;BME280;3631;42.152;24.756;2023-03-13T00:17:09;99752.44;;;6.77;56.15
7180;BME280;3631;42.152;24.756;2023-03-13T00:19:36;99756.72;;;6.78;56.04
7180;BME280;3631;42.152;24.756;2023-03-13T00:22:03;99749.94;;;6.70;56.46
7180;BME280;3631;42.152;24.756;2023-03-13T00:24:30;99761.19;;;6.64;56.43
7180;BME280;3631;42.152;24.756;2023-03-13T00:26:59;99762.91;;;6.64;56.74
7180;BME280;3631;42.152;24.756;2023-03-13T00:29:29;99756.06;;;6.56;57.74
7180;BME280;3631;42.152;24.756;2023-03-13T00:31:56;99742.38;;;6.53;57.24
7180;BME280;3631;42.152;24.756;2023-03-13T00:34:23;99763.03;;;6.48;57.49
7180;BME280;3631;42.152;24.756;2023-03-13T00:36:52;99741.66;;;6.34;57.54
7180;BME280;3631;42.152;24.756;2023-03-13T00:39:19;99750.19;;;6.42;57.45
7180;BME280;3631;42.152;24.756;2023-03-13T00:41:46;99749.38;;;6.37;58.13
7180;BME280;3631;42.152;24.756;2023-03-13T00:44:14;99747.66;;;6.36;57.89
7180;BME280;3631;42.152;24.756;2023-03-13T00:46:41;99746.78;;;6.39;57.82
7180;BME280;3631;42.152;24.756;2023-03-13T00:49:08;99742.50;;;6.36;58.01
7180;BME280;3631;42.152;24.756;2023-03-13T00:51:35;99727.97;;;6.28;58.13
7180;BME280;3631;42.152;24.756;2023-03-13T00:54:02;99739.06;;;6.34;58.19
7180;BME280;3631;42.152;24.756;2023-03-13T00:56:29;99736.50;;;6.33;58.31
7180;BME280;3631;42.152;24.756;2023-03-13T00:58:58;99744.28;;;6.30;58.51
7180;BME280;3631;42.152;24.756;2023-03-13T01:01:28;99742.59;;;6.27;58.34
7180;BME280;3631;42.152;24.756;2023-03-13T01:03:58;99740.88;;;6.25;58.29
7180;BME280;3631;42.152;24.756;2023-03-13T01:06:26;99740.03;;;6.23;57.86
7180;BME280;3631;42.152;24.756;2023-03-13T01:08:54;99736.59;;;6.22;58.55
7180;BME280;3631;42.152;24.756;2023-03-13T01:11:23;99738.38;;;6.15;58.12
7180;BME280;3631;42.152;24.756;2023-03-13T01:13:53;99732.38;;;6.12;58.14
7180;BME280;3631;42.152;24.756;2023-03-13T01:16:20;99727.31;;;5.98;58.05
7180;BME280;3631;42.152;24.756;2023-03-13T01:18:50;99727.38;;;5.95;58.94
7180;BME280;3631;42.152;24.756;2023-03-13T01:21:18;99734.22;;;5.95;59.14
7180;BME280;3631;42.152;24.756;2023-03-13T01:23:46;99735.97;;;5.88;59.69
7180;BME280;3631;42.152;24.756;2023-03-13T01:26:13;99736.84;;;5.82;59.93
7180;BME280;3631;42.152;24.756;2023-03-13T01:28:40;99744.59;;;5.81;60.55
7180;BME280;3631;42.152;24.756;2023-03-13T01:31:11;99742.06;;;5.72;60.48
7180;BME280;3631;42.152;24.756;2023-03-13T01:33:38;99744.72;;;5.58;61.56
7180;BME280;3631;42.152;24.756;2023-03-13T01:36:07;99756.69;;;5.67;61.67
7180;BME280;3631;42.152;24.756;2023-03-13T01:38:35;99739.56;;;5.58;61.72
7180;BME280;3631;42.152;24.756;2023-03-13T01:41:02;99757.56;;;5.64;61.72
7180;BME280;3631;42.152;24.756;2023-03-13T01:43:31;99756.66;;;5.68;61.42
7180;BME280;3631;42.152;24.756;2023-03-13T01:46:07;99762.72;;;5.58;61.46
7180;BME280;3631;42.152;24.756;2023-03-13T01:48:44;99758.50;;;5.48;61.75
7180;BME280;3631;42.152;24.756;2023-03-13T01:51:19;99766.22;;;5.48;61.78
7180;BME280;3631;42.152;24.756;2023-03-13T01:53:49;99765.41;;;5.37;61.74
7180;BME280;3631;42.152;24.756;2023-03-13T01:56:23;99765.41;;;5.37;62.43
7180;BME280;3631;42.152;24.756;2023-03-13T01:58:53;99773.16;;;5.29;62.21
7180;BME280;3631;42.152;24.756;2023-03-13T02:01:22;99767.13;;;5.32;62.44
7180;BME280;3631;42.152;24.756;2023-03-13T02:03:50;99781.75;;;5.25;62.52
7180;BME280;3631;42.152;24.756;2023-03-13T02:06:18;99781.75;;;5.22;63.40
7180;BME280;3631;42.152;24.756;2023-03-13T02:08:50;99788.66;;;5.05;63.82
7180;BME280;3631;42.152;24.756;2023-03-13T02:11:23;99787.81;;;4.98;64.44
7180;BME280;3631;42.152;24.756;2023-03-13T02:13:53;99788.69;;;4.93;64.61
7180;BME280;3631;42.152;24.756;2023-03-13T02:16:21;99798.94;;;4.97;64.61
7180;BME280;3631;42.152;24.756;2023-03-13T02:18:49;99809.25;;;4.96;64.75
7180;BME280;3631;42.152;24.756;2023-03-13T02:21:26;99809.28;;;4.84;65.79
7180;BME280;3631;42.152;24.756;2023-03-13T02:24:01;99812.69;;;4.63;67.53
7180;BME280;3631;42.152;24.756;2023-03-13T02:26:34;99814.41;;;4.68;67.84
7180;BME280;3631;42.152;24.756;2023-03-13T02:29:01;99830.69;;;4.78;66.98
7180;BME280;3631;42.152;24.756;2023-03-13T02:31:28;99824.72;;;4.73;67.90
7180;BME280;3631;42.152;24.756;2023-03-13T02:33:58;99834.97;;;4.65;68.72
7180;BME280;3631;42.152;24.756;2023-03-13T02:36:27;99832.44;;;4.59;69.63
7180;BME280;3631;42.152;24.756;2023-03-13T02:38:56;99833.25;;;4.63;69.44
7180;BME280;3631;42.152;24.756;2023-03-13T02:41:26;99833.28;;;4.61;69.35
7180;BME280;3631;42.152;24.756;2023-03-13T02:43:55;99843.53;;;4.52;69.47
7180;BME280;3631;42.152;24.756;2023-03-13T02:46:22;99842.66;;;4.41;69.94
7180;BME280;3631;42.152;24.756;2023-03-13T02:48:50;99843.53;;;4.28;71.35
7180;BME280;3631;42.152;24.756;2023-03-13T02:51:23;99847.81;;;4.33;71.59
7180;BME280;3631;42.152;24.756;2023-03-13T02:53:53;99822.94;;;4.11;71.49
7180;BME280;3631;42.152;24.756;2023-03-13T02:56:23;99857.22;;;4.27;71.07
7180;BME280;3631;42.152;24.756;2023-03-13T02:58:51;99852.94;;;4.24;70.74
7180;BME280;3631;42.152;24.756;2023-03-13T03:01:19;99846.09;;;4.26;69.74
7180;BME280;3631;42.152;24.756;2023-03-13T03:03:46;99853.78;;;4.23;69.02
7180;BME280;3631;42.152;24.756;2023-03-13T03:06:13;99852.94;;;4.15;67.99
7180;BME280;3631;42.152;24.756;2023-03-13T03:08:40;99858.03;;;4.18;68.13
7180;BME280;3631;42.152;24.756;2023-03-13T03:11:08;99866.63;;;4.23;67.80
7180;BME280;3631;42.152;24.756;2023-03-13T03:13:35;99870.03;;;4.19;67.88
7180;BME280;3631;42.152;24.756;2023-03-13T03:16:05;99874.31;;;4.14;69.12
7180;BME280;3631;42.152;24.756;2023-03-13T03:18:34;99880.28;;;4.07;68.89
7180;BME280;3631;42.152;24.756;2023-03-13T03:21:01;99875.13;;;3.99;68.98
7180;BME280;3631;42.152;24.756;2023-03-13T03:23:31;99887.13;;;4.02;68.81
7180;BME280;3631;42.152;24.756;2023-03-13T03:25:58;99899.13;;;4.03;69.46
7180;BME280;3631;42.152;24.756;2023-03-13T03:28:24;99900.81;;;3.95;69.26
7180;BME280;3631;42.152;24.756;2023-03-13T03:30:52;99890.44;;;3.77;70.26
7180;BME280;3631;42.152;24.756;2023-03-13T03:33:19;99913.53;;;3.74;71.19
7180;BME280;3631;42.152;24.756;2023-03-13T03:35:47;99914.38;;;3.73;72.37
7180;BME280;3631;42.152;24.756;2023-03-13T03:38:15;99911.81;;;3.70;72.49
7180;BME280;3631;42.152;24.756;2023-03-13T03:40:42;99912.53;;;3.46;72.82
7180;BME280;3631;42.152;24.756;2023-03-13T03:43:09;99933.09;;;3.53;73.25
7180;BME280;3631;42.152;24.756;2023-03-13T03:45:36;99931.41;;;3.55;74.04
7180;BME280;3631;42.152;24.756;2023-03-13T03:48:04;99933.88;;;3.42;74.12
7180;BME280;3631;42.152;24.756;2023-03-13T03:50:31;99938.97;;;3.36;74.55
7180;BME280;3631;42.152;24.756;2023-03-13T03:52:59;99931.28;;;3.40;74.68
7180;BME280;3631;42.152;24.756;2023-03-13T03:55:26;99935.50;;;3.31;75.40
7180;BME280;3631;42.152;24.756;2023-03-13T03:57:53;99938.06;;;3.26;75.71
7180;BME280;3631;42.152;24.756;2023-03-13T04:00:20;99937.16;;;3.21;74.73
7180;BME280;3631;42.152;24.756;2023-03-13T04:02:47;99949.94;;;3.18;76.08
7180;BME280;3631;42.152;24.756;2023-03-13T04:05:15;99949.00;;;3.07;76.20
7180;BME280;3631;42.152;24.756;2023-03-13T04:07:42;99947.34;;;3.12;76.59
7180;BME280;3631;42.152;24.756;2023-03-13T04:10:11;99952.50;;;3.18;76.06
7180;BME280;3631;42.152;24.756;2023-03-13T04:12:38;99961.00;;;3.09;76.42
7180;BME280;3631;42.152;24.756;2023-03-13T04:15:06;99952.47;;;3.12;76.88
7180;BME280;3631;42.152;24.756;2023-03-13T04:17:33;99965.31;;;3.12;76.61
7180;BME280;3631;42.152;24.756;2023-03-13T04:20:00;99973.03;;;3.18;76.44
7180;BME280;3631;42.152;24.756;2023-03-13T04:22:27;99980.75;;;3.21;76.33
7180;BME280;3631;42.152;24.756;2023-03-13T04:24:53;99975.66;;;3.24;75.82
7180;BME280;3631;42.152;24.756;2023-03-13T04:27:22;99979.91;;;3.20;75.21
7180;BME280;3631;42.152;24.756;2023-03-13T04:29:49;99982.44;;;3.16;75.74
7180;BME280;3631;42.152;24.756;2023-03-13T04:32:15;99984.16;;;3.20;75.21
7180;BME280;3631;42.152;24.756;2023-03-13T04:34:42;99986.78;;;3.24;74.55
7180;BME280;3631;42.152;24.756;2023-03-13T04:37:09;99997.84;;;3.20;74.32
7180;BME280;3631;42.152;24.756;2023-03-13T04:39:36;100003.69;;;3.06;75.23
7180;BME280;3631;42.152;24.756;2023-03-13T04:42:03;100008.84;;;3.07;75.31
7180;BME280;3631;42.152;24.756;2023-03-13T04:44:31;100004.56;;;3.08;75.66
7180;BME280;3631;42.152;24.756;2023-03-13T04:46:58;100011.47;;;3.12;75.62
7180;BME280;3631;42.152;24.756;2023-03-13T04:49:25;100009.75;;;3.11;76.56
7180;BME280;3631;42.152;24.756;2023-03-13T04:51:52;100012.25;;;3.06;77.00
7180;BME280;3631;42.152;24.756;2023-03-13T04:54:19;100016.66;;;3.21;76.71
7180;BME280;3631;42.152;24.756;2023-03-13T04:56:46;100014.19;;;3.32;76.04
7180;BME280;3631;42.152;24.756;2023-03-13T04:59:14;100019.44;;;3.45;75.11
7180;BME280;3631;42.152;24.756;2023-03-13T05:01:43;100018.63;;;3.52;74.20
7180;BME280;3631;42.152;24.756;2023-03-13T05:04:10;100024.63;;;3.53;73.08
7180;BME280;3631;42.152;24.756;2023-03-13T05:06:37;100029.75;;;3.51;73.04
7180;BME280;3631;42.152;24.756;2023-03-13T05:09:05;100025.47;;;3.53;72.31
7180;BME280;3631;42.152;24.756;2023-03-13T05:11:32;100034.97;;;3.63;72.16
7180;BME280;3631;42.152;24.756;2023-03-13T05:13:59;100034.13;;;3.60;72.17
7180;BME280;3631;42.152;24.756;2023-03-13T05:16:26;100039.28;;;3.68;72.48
7180;BME280;3631;42.152;24.756;2023-03-13T05:18:54;100045.38;;;3.82;71.24
7180;BME280;3631;42.152;24.756;2023-03-13T05:21:21;100054.03;;;3.99;70.38
7180;BME280;3631;42.152;24.756;2023-03-13T05:23:48;100050.69;;;4.06;70.08
7180;BME280;3631;42.152;24.756;2023-03-13T05:26:15;100059.22;;;4.07;70.35
7180;BME280;3631;42.152;24.756;2023-03-13T05:28:42;100061.00;;;4.15;69.29
7180;BME280;3631;42.152;24.756;2023-03-13T05:31:09;100068.78;;;4.30;69.05
7180;BME280;3631;42.152;24.756;2023-03-13T05:33:36;100057.84;;;4.71;68.16
7180;BME280;3631;42.152;24.756;2023-03-13T05:36:04;100066.56;;;5.76;64.07
7180;BME280;3631;42.152;24.756;2023-03-13T05:38:31;100067.59;;;7.52;57.84
7180;BME280;3631;42.152;24.756;2023-03-13T05:40:58;100069.91;;;9.30;52.01
7180;BME280;3631;42.152;24.756;2023-03-13T05:43:25;100085.81;;;11.04;47.15
7180;BME280;3631;42.152;24.756;2023-03-13T05:45:52;100088.97;;;12.57;43.06
7180;BME280;3631;42.152;24.756;2023-03-13T05:48:19;100096.53;;;13.80;40.17
7180;BME280;3631;42.152;24.756;2023-03-13T05:50:46;100102.09;;;14.96;37.18
7180;BME280;3631;42.152;24.756;2023-03-13T05:53:14;100095.28;;;16.02;35.93
7180;BME280;3631;42.152;24.756;2023-03-13T05:55:41;100107.22;;;16.89;34.20
7180;BME280;3631;42.152;24.756;2023-03-13T05:58:08;100107.41;;;17.40;32.85
7180;BME280;3631;42.152;24.756;2023-03-13T06:00:35;100106.41;;;17.98;31.60
7180;BME280;3631;42.152;24.756;2023-03-13T06:03:02;100089.97;;;18.11;31.16
7180;BME280;3631;42.152;24.756;2023-03-13T06:05:29;100125.06;;;18.95;30.28
7180;BME280;3631;42.152;24.756;2023-03-13T06:07:56;100113.00;;;18.58;30.07
7180;BME280;3631;42.152;24.756;2023-03-13T06:10:24;100121.25;;;18.68;29.83
7180;BME280;3631;42.152;24.756;2023-03-13T06:12:52;100122.63;;;19.23;29.25
7180;BME280;3631;42.152;24.756;2023-03-13T06:15:19;100105.00;;;19.08;29.19
7180;BME280;3631;42.152;24.756;2023-03-13T06:17:46;100124.63;;;19.97;28.02
7180;BME280;3631;42.152;24.756;2023-03-13T06:20:14;100104.28;;;20.59;27.02
7180;BME280;3631;42.152;24.756;2023-03-13T06:22:41;100129.34;;;19.76;27.86
7180;BME280;3631;42.152;24.756;2023-03-13T06:25:09;100125.97;;;20.04;27.73
7180;BME280;3631;42.152;24.756;2023-03-13T06:27:37;100135.09;;;20.28;27.48
7180;BME280;3631;42.152;24.756;2023-03-13T06:30:04;100140.72;;;20.66;27.00
7180;BME280;3631;42.152;24.756;2023-03-13T06:32:31;100140.66;;;21.25;26.42
7180;BME280;3631;42.152;24.756;2023-03-13T06:34:58;100143.34;;;21.66;25.64
7180;BME280;3631;42.152;24.756;2023-03-13T06:37:25;100140.91;;;22.29;25.11
7180;BME280;3631;42.152;24.756;2023-03-13T06:39:52;100139.06;;;22.95;24.04
7180;BME280;3631;42.152;24.756;2023-03-13T06:42:19;100131.44;;;23.52;24.01
7180;BME280;3631;42.152;24.756;2023-03-13T06:44:47;100136.19;;;23.83;23.69
7180;BME280;3631;42.152;24.756;2023-03-13T06:47:14;100133.53;;;24.31;22.99
7180;BME280;3631;42.152;24.756;2023-03-13T06:49:41;100137.72;;;24.22;23.10
7180;BME280;3631;42.152;24.756;2023-03-13T06:52:08;100134.53;;;24.52;22.73
7180;BME280;3631;42.152;24.756;2023-03-13T06:54:35;100143.50;;;24.85;22.72
7180;BME280;3631;42.152;24.756;2023-03-13T06:57:02;100137.88;;;25.01;22.18
7180;BME280;3631;42.152;24.756;2023-03-13T06:59:29;100133.19;;;25.15;22.30
7180;BME280;3631;42.152;24.756;2023-03-13T07:01:58;100134.56;;;24.86;22.31
7180;BME280;3631;42.152;24.756;2023-03-13T07:04:24;100131.25;;;25.83;21.61
7180;BME280;3631;42.152;24.756;2023-03-13T07:06:51;100136.91;;;25.89;21.43
7180;BME280;3631;42.152;24.756;2023-03-13T07:09:18;100136.34;;;26.90;20.72
7180;BME280;3631;42.152;24.756;2023-03-13T07:11:45;100133.63;;;27.41;20.05
7180;BME280;3631;42.152;24.756;2023-03-13T07:14:12;100135.97;;;28.13;19.77
7180;BME280;3631;42.152;24.756;2023-03-13T07:16:39;100137.66;;;28.04;19.44
7180;BME280;3631;42.152;24.756;2023-03-13T07:19:07;100133.63;;;28.29;19.17
7180;BME280;3631;42.152;24.756;2023-03-13T07:21:34;100133.47;;;29.24;18.38
7180;BME280;3631;42.152;24.756;2023-03-13T07:24:02;100142.09;;;30.26;18.10
7180;BME280;3631;42.152;24.756;2023-03-13T07:26:29;100146.13;;;30.65;17.64
7180;BME280;3631;42.152;24.756;2023-03-13T07:28:56;100142.59;;;30.65;17.34
7180;BME280;3631;42.152;24.756;2023-03-13T07:31:23;100148.25;;;30.88;17.25
7180;BME280;3631;42.152;24.756;2023-03-13T07:33:52;100145.56;;;30.18;17.45
7180;BME280;3631;42.152;24.756;2023-03-13T07:36:24;100142.13;;;28.62;18.53
7180;BME280;3631;42.152;24.756;2023-03-13T07:38:51;100133.94;;;25.72;20.67
7180;BME280;3631;42.152;24.756;2023-03-13T07:41:19;100125.41;;;23.01;23.50
7180;BME280;3631;42.152;24.756;2023-03-13T07:43:46;100116.03;;;21.38;25.04
7180;BME280;3631;42.152;24.756;2023-03-13T07:46:14;100125.69;;;19.79;27.14
7180;BME280;3631;42.152;24.756;2023-03-13T07:48:43;100120.88;;;18.58;28.18
7180;BME280;3631;42.152;24.756;2023-03-13T07:51:11;100113.09;;;17.31;29.95
7180;BME280;3631;42.152;24.756;2023-03-13T07:53:39;100119.03;;;16.38;31.49
7180;BME280;3631;42.152;24.756;2023-03-13T07:56:09;100119.84;;;15.56;32.87
7180;BME280;3631;42.152;24.756;2023-03-13T07:58:37;100116.16;;;15.15;33.73
7180;BME280;3631;42.152;24.756;2023-03-13T08:01:07;100111.38;;;14.79;34.28
7180;BME280;3631;42.152;24.756;2023-03-13T08:03:35;100107.72;;;14.35;35.20
7180;BME280;3631;42.152;24.756;2023-03-13T08:06:04;100109.00;;;13.99;35.67
7180;BME280;3631;42.152;24.756;2023-03-13T08:08:32;100083.56;;;13.77;36.01
7180;BME280;3631;42.152;24.756;2023-03-13T08:11:01;100101.25;;;13.69;36.39
7180;BME280;3631;42.152;24.756;2023-03-13T08:13:28;100082.50;;;13.30;36.80
7180;BME280;3631;42.152;24.756;2023-03-13T08:16:03;100079.94;;;13.29;37.32
7180;BME280;3631;42.152;24.756;2023-03-13T08:18:30;100085.13;;;13.30;37.11
7180;BME280;3631;42.152;24.756;2023-03-13T08:21:03;100077.09;;;13.36;36.98
7180;BME280;3631;42.152;24.756;2023-03-13T08:23:30;100072.53;;;13.14;37.68
7180;BME280;3631;42.152;24.756;2023-03-13T08:26:03;100067.25;;;12.87;38.19
7180;BME280;3631;42.152;24.756;2023-03-13T08:28:30;100069.56;;;12.98;37.91
7180;BME280;3631;42.152;24.756;2023-03-13T08:30:57;100072.09;;;12.99;37.82
7180;BME280;3631;42.152;24.756;2023-03-13T08:33:24;100061.50;;;13.05;38.78
7180;BME280;3631;42.152;24.756;2023-03-13T08:35:51;100065.94;;;13.02;39.36
7180;BME280;3631;42.152;24.756;2023-03-13T08:38:18;100069.16;;;12.82;39.68
7180;BME280;3631;42.152;24.756;2023-03-13T08:40:45;100068.13;;;12.57;39.57
7180;BME280;3631;42.152;24.756;2023-03-13T08:43:13;100067.25;;;12.58;39.39
7180;BME280;3631;42.152;24.756;2023-03-13T08:45:40;100072.22;;;12.65;39.77
7180;BME280;3631;42.152;24.756;2023-03-13T08:48:07;100071.13;;;12.74;39.99
7180;BME280;3631;42.152;24.756;2023-03-13T08:50:34;100081.72;;;12.68;39.17
7180;BME280;3631;42.152;24.756;2023-03-13T08:53:01;100070.72;;;12.88;38.71
7180;BME280;3631;42.152;24.756;2023-03-13T08:55:28;100082.03;;;13.18;38.17
7180;BME280;3631;42.152;24.756;2023-03-13T08:57:55;100076.66;;;13.22;37.25
7180;BME280;3631;42.152;24.756;2023-03-13T09:00:23;100081.34;;;13.39;36.88
7180;BME280;3631;42.152;24.756;2023-03-13T09:02:50;100076.44;;;13.30;37.52
7180;BME280;3631;42.152;24.756;2023-03-13T09:05:17;100072.22;;;13.26;37.51
7180;BME280;3631;42.152;24.756;2023-03-13T09:07:44;100073.03;;;13.28;37.67
7180;BME280;3631;42.152;24.756;2023-03-13T09:10:11;100079.94;;;13.29;37.98
7180;BME280;3631;42.152;24.756;2023-03-13T09:12:38;100074.25;;;13.16;37.65
7180;BME280;3631;42.152;24.756;2023-03-13T09:15:07;100072.50;;;13.17;37.79
7180;BME280;3631;42.152;24.756;2023-03-13T09:17:36;100071.91;;;13.07;37.53
7180;BME280;3631;42.152;24.756;2023-03-13T09:20:04;100072.94;;;13.00;37.32
7180;BME280;3631;42.152;24.756;2023-03-13T09:22:31;100061.44;;;13.08;36.81
7180;BME280;3631;42.152;24.756;2023-03-13T09:24:58;100060.84;;;13.28;36.42
7180;BME280;3631;42.152;24.756;2023-03-13T09:27:24;100058.19;;;13.00;36.51
7180;BME280;3631;42.152;24.756;2023-03-13T09:29:52;100064.13;;;13.05;35.77
7180;BME280;3631;42.152;24.756;2023-03-13T09:32:19;100062.03;;;12.87;35.66
7180;BME280;3631;42.152;24.756;2023-03-13T09:34:48;100067.00;;;12.65;36.21
7180;BME280;3631;42.152;24.756;2023-03-13T09:37:14;100065.31;;;12.33;36.31
7180;BME280;3631;42.152;24.756;2023-03-13T09:39:41;100066.47;;;12.23;37.02
7180;BME280;3631;42.152;24.756;2023-03-13T09:42:13;100059.34;;;12.30;36.84
7180;BME280;3631;42.152;24.756;2023-03-13T09:44:45;100057.66;;;12.29;36.83
7180;BME280;3631;42.152;24.756;2023-03-13T09:47:19;100052.38;;;12.30;37.00
7180;BME280;3631;42.152;24.756;2023-03-13T09:52:59;100043.38;;;12.42;36.90
7180;BME280;3631;42.152;24.756;2023-03-13T09:55:30;100035.72;;;12.67;36.59
7180;BME280;3631;42.152;24.756;2023-03-13T09:58:02;100028.88;;;12.33;36.37
7180;BME280;3631;42.152;24.756;2023-03-13T10:00:33;100022.47;;;12.45;35.91
7180;BME280;3631;42.152;24.756;2023-03-13T10:03:06;100027.44;;;12.53;35.90
7180;BME280;3631;42.152;24.756;2023-03-13T10:05:43;100023.94;;;12.54;36.21
7180;BME280;3631;42.152;24.756;2023-03-13T10:08:15;100020.41;;;12.56;35.73
7180;BME280;3631;42.152;24.756;2023-03-13T10:10:45;100017.44;;;12.39;35.55
7180;BME280;3631;42.152;24.756;2023-03-13T10:13:18;100020.72;;;12.46;34.84
7180;BME280;3631;42.152;24.756;2023-03-13T10:15:49;100016.06;;;12.57;34.84
7180;BME280;3631;42.152;24.756;2023-03-13T10:18:18;100012.13;;;12.73;36.23
7180;BME280;3631;42.152;24.756;2023-03-13T10:20:49;100014.50;;;12.81;37.45
7180;BME280;3631;42.152;24.756;2023-03-13T10:23:23;100008.41;;;12.80;34.15
7180;BME280;3631;42.152;24.756;2023-03-13T10:25:52;100017.66;;;12.90;30.55
7180;BME280;3631;42.152;24.756;2023-03-13T10:28:19;100011.31;;;12.99;30.72
7180;BME280;3631;42.152;24.756;2023-03-13T10:30:48;100008.63;;;13.02;32.88
7180;BME280;3631;42.152;24.756;2023-03-13T10:33:24;99992.91;;;13.05;31.55
7180;BME280;3631;42.152;24.756;2023-03-13T10:36:04;100004.69;;;13.18;31.10
7180;BME280;3631;42.152;24.756;2023-03-13T10:38:44;100002.13;;;13.17;31.76
7180;BME280;3631;42.152;24.756;2023-03-13T10:41:19;100005.75;;;13.09;29.18
7180;BME280;3631;42.152;24.756;2023-03-13T10:43:51;99999.13;;;12.99;29.75
7180;BME280;3631;42.152;24.756;2023-03-13T10:46:28;100002.03;;;12.90;30.07
7180;BME280;3631;42.152;24.756;2023-03-13T10:48:59;99977.88;;;12.85;30.47
7180;BME280;3631;42.152;24.756;2023-03-13T10:51:34;99980.28;;;12.91;31.86
7180;BME280;3631;42.152;24.756;2023-03-13T10:54:12;99985.13;;;13.03;30.97
7180;BME280;3631;42.152;24.756;2023-03-13T10:56:39;99968.00;;;12.96;31.07
7180;BME280;3631;42.152;24.756;2023-03-13T10:59:18;99959.56;;;12.87;29.83
7180;BME280;3631;42.152;24.756;2023-03-13T11:01:46;99969.72;;;12.68;30.21
7180;BME280;3631;42.152;24.756;2023-03-13T11:04:31;99970.50;;;12.71;30.98
7180;BME280;3631;42.152;24.756;2023-03-13T11:07:03;99963.59;;;12.69;31.06
7180;BME280;3631;42.152;24.756;2023-03-13T11:09:32;99913.13;;;12.45;29.80
7180;BME280;3631;42.152;24.756;2023-03-13T11:12:04;99955.56;;;12.77;30.25
7180;BME280;3631;42.152;24.756;2023-03-13T11:14:33;99953.47;;;12.88;29.46
7180;BME280;3631;42.152;24.756;2023-03-13T11:17:04;99947.84;;;13.01;29.47
7180;BME280;3631;42.152;24.756;2023-03-13T11:19:49;99946.94;;;13.02;29.38
7180;BME280;3631;42.152;24.756;2023-03-13T11:22:27;99941.47;;;13.10;29.06
7180;BME280;3631;42.152;24.756;2023-03-13T11:25:02;99932.69;;;13.13;29.22
7180;BME280;3631;42.152;24.756;2023-03-13T11:27:35;99943.63;;;12.97;27.96
7180;BME280;3631;42.152;24.756;2023-03-13T11:30:16;99934.78;;;12.75;28.22
7180;BME280;3631;42.152;24.756;2023-03-13T11:32:51;99935.94;;;12.65;29.13
7180;BME280;3631;42.152;24.756;2023-03-13T11:35:36;99923.72;;;12.67;29.07
7180;BME280;3631;42.152;24.756;2023-03-13T11:38:10;99936.66;;;12.70;29.22
7180;BME280;3631;42.152;24.756;2023-03-13T11:40:48;99927.97;;;12.71;29.58
7180;BME280;3631;42.152;24.756;2023-03-13T11:43:31;99925.34;;;12.71;29.35
7180;BME280;3631;42.152;24.756;2023-03-13T11:46:18;99919.91;;;12.79;27.96
7180;BME280;3631;42.152;24.756;2023-03-13T11:49:21;99908.84;;;12.72;29.00
7180;BME280;3631;42.152;24.756;2023-03-13T11:52:02;99901.06;;;12.70;29.76
7180;BME280;3631;42.152;24.756;2023-03-13T11:55:02;99903.78;;;12.66;30.08
7180;BME280;3631;42.152;24.756;2023-03-13T11:57:41;99889.06;;;12.65;30.08
7180;BME280;3631;42.152;24.756;2023-03-13T12:00:20;99886.25;;;12.72;29.80
7180;BME280;3631;42.152;24.756;2023-03-13T12:02:52;99877.75;;;12.66;29.35
7180;BME280;3631;42.152;24.756;2023-03-13T12:05:21;99871.56;;;12.70;29.31
7180;BME280;3631;42.152;24.756;2023-03-13T12:07:53;99871.25;;;12.79;29.52
7180;BME280;3631;42.152;24.756;2023-03-13T12:10:26;99872.53;;;12.66;29.13
7180;BME280;3631;42.152;24.756;2023-03-13T12:13:01;99870.78;;;12.66;28.67
7180;BME280;3631;42.152;24.756;2023-03-13T12:15:31;99865.88;;;12.57;28.87
7180;BME280;3631;42.152;24.756;2023-03-13T12:18:02;99869.25;;;12.61;29.21
7180;BME280;3631;42.152;24.756;2023-03-13T12:20:39;99861.91;;;12.73;29.01
7180;BME280;3631;42.152;24.756;2023-03-13T12:23:28;99865.53;;;12.68;28.70
7180;BME280;3631;42.152;24.756;2023-03-13T12:26:03;99866.31;;;12.71;28.39
7180;BME280;3631;42.152;24.756;2023-03-13T12:28:36;99864.25;;;12.81;28.25
7180;BME280;3631;42.152;24.756;2023-03-13T12:31:16;99866.66;;;12.87;29.11
7180;BME280;3631;42.152;24.756;2023-03-13T12:33:49;99862.38;;;12.86;28.40
7180;BME280;3631;42.152;24.756;2023-03-13T12:36:21;99860.25;;;12.97;28.11
7180;BME280;3631;42.152;24.756;2023-03-13T12:38:55;99863.72;;;12.98;28.39
7180;BME280;3631;42.152;24.756;2023-03-13T12:41:28;99858.59;;;12.95;27.97
7180;BME280;3631;42.152;24.756;2023-03-13T12:43:59;99862.50;;;12.82;28.03
7180;BME280;3631;42.152;24.756;2023-03-13T12:46:34;99863.53;;;12.76;28.24
7180;BME280;3631;42.152;24.756;2023-03-13T12:49:15;99857.63;;;12.71;27.75
7180;BME280;3631;42.152;24.756;2023-03-13T12:52:02;99865.09;;;12.82;27.57
7180;BME280;3631;42.152;24.756;2023-03-13T12:54:50;99863.59;;;12.75;27.74
7180;BME280;3631;42.152;24.756;2023-03-13T12:57:42;99860.66;;;12.85;27.38
7180;BME280;3631;42.152;24.756;2023-03-13T13:00:21;99857.44;;;12.77;27.63
7180;BME280;3631;42.152;24.756;2023-03-13T13:03:01;99854.94;;;12.74;28.30
7180;BME280;3631;42.152;24.756;2023-03-13T13:05:30;99852.22;;;12.77;28.67
7180;BME280;3631;42.152;24.756;2023-03-13T13:07:57;99850.31;;;12.82;28.34
7180;BME280;3631;42.152;24.756;2023-03-13T13:10:25;99846.72;;;12.86;28.25
7180;BME280;3631;42.152;24.756;2023-03-13T13:13:24;99852.50;;;12.96;28.75
7180;BME280;3631;42.152;24.756;2023-03-13T13:16:00;99851.13;;;12.84;29.00
7180;BME280;3631;42.152;24.756;2023-03-13T13:18:29;99841.91;;;12.74;28.75
7180;BME280;3631;42.152;24.756;2023-03-13T13:21:19;99840.50;;;12.64;29.26
7180;BME280;3631;42.152;24.756;2023-03-13T13:23:47;99842.56;;;12.53;29.43
7180;BME280;3631;42.152;24.756;2023-03-13T13:26:46;99849.31;;;12.60;29.28
7180;BME280;3631;42.152;24.756;2023-03-13T13:32:42;99822.41;;;12.59;29.14